Route Details

Aircraft Information
Group: North America Fleet
Types: B738, B752, B762, B763
Route Data
Distance: 511nm
Duration: 1h 50m
Origin METAR: KCVG 100552Z 33006KT 4SM BR OVC013 07/06 A3014 RMK AO2 SLP207 T00670061 10089 20056 53007 $
Dest. METAR: KJFK 100451Z 36011KT 10SM CLR 02/M10 A3031 RMK AO2 SLP262 T00171100 400830017
Freight Data
(for Dec 10, 2022)
Load Factor:
57%
Manifested Cargo: 33,856lbs
Financial History
Total Freight: 57,843lbs
Average Load: 0lbs/flt
Fuel Used: 16,474lbs
Avg. Fuel Used: 0lbs/flt
Fuel Expense: $11,202
Avg. Fuel Expense: $0
Avg. Fuel Cost: $0/lbs
Total Gross Income: $147,500
Pilot Pay: $119
Total Expenses: $22,601
Total Revenue: $113,462
Average Revenue: $0

Capitol Logistics 425




KCVG
Cincinnati/Northern Kentucky International Airport
Covington, Kentucky
KJFK
John F Kennedy International Airport
New York, New York

Activity Log

Date Flight Route Aircraft Duration
05/28/2022 CPX2608 BNGLE4 DJB YNG SLT FQM V188 LVZ LENDY7 B752 1h 58m